Terminal Aerodrome Forecast
Issued by NWS

Home | Current Version | Previous Version | Text Only | Print | Product List | Glossary On
Versions: 1 2 3 4 5 6 7 8 9 10 11 12 13 14
000
FTUS46 KPDT 301100
TAFBDN
TAF
KBDN 301135Z 3012/3112 20007KT P6SM FEW200
     FM302100 34009KT P6SM SCT200
     FM310600 26007KT P6SM SCT020 BKN035 BKN070=

USA.gov is the U.S. government's official web portal to all federal, state and local government web resources and services.